Time,TemperatureF,DewpointF,PressureIn,WindDirection,WindDirectionDegrees,WindSpeedMPH,WindSpeedGustMPH,Humidity,HourlyPrecipIn,Conditions,Clouds,dailyrainin,SoftwareType,DateUTC
2013-09-19 00:13:00,75.0,68.0,29.86,SSE,157,0.0,-999.0,80,-99.99,,,-99.99,,2013-09-19 05:13:00,
2013-09-19 00:23:00,75.0,68.0,29.86,SSE,159,0.0,-999.0,80,-99.99,,,-99.99,,2013-09-19 05:23:00,
2013-09-19 00:52:00,75.0,69.0,29.85,SSE,165,1.0,-999.0,82,-99.99,,,-99.99,,2013-09-19 05:52:00,
2013-09-19 01:12:00,75.0,69.0,29.85,SSE,157,1.0,-999.0,82,-99.99,,,-99.99,,2013-09-19 06:12:00,
2013-09-19 01:22:00,75.0,69.0,29.85,SSE,157,0.0,-999.0,81,-99.99,,,-99.99,,2013-09-19 06:22:00,
2013-09-19 01:43:00,75.0,68.0,29.85,SE,137,0.0,-999.0,80,-99.99,,,-99.99,,2013-09-19 06:43:00,
2013-09-19 01:52:00,75.0,68.0,29.85,SSE,150,0.0,-999.0,80,-99.99,,,-99.99,,2013-09-19 06:52:00,
2013-09-19 02:12:00,75.0,68.0,29.86,SSE,157,0.0,-999.0,79,-99.99,,,-99.99,,2013-09-19 07:12:00,
2013-09-19 02:22:00,75.0,68.0,29.86,SSE,157,0.0,-999.0,79,-99.99,,,-99.99,,2013-09-19 07:22:00,
2013-09-19 02:42:00,74.0,67.0,29.86,SSE,148,0.0,-999.0,80,-99.99,,,-99.99,,2013-09-19 07:42:00,
2013-09-19 02:52:00,74.0,67.0,29.86,SSE,151,1.0,-999.0,80,-99.99,,,-99.99,,2013-09-19 07:52:00,
2013-09-19 03:12:00,74.0,68.0,29.85,SSE,151,0.0,-999.0,81,-99.99,,,-99.99,,2013-09-19 08:12:00,
2013-09-19 03:22:00,74.0,68.0,29.85,SSE,162,1.0,-999.0,81,-99.99,,,-99.99,,2013-09-19 08:22:00,
2013-09-19 03:52:00,74.0,68.0,29.85,SSE,158,0.0,-999.0,83,-99.99,,,-99.99,,2013-09-19 08:52:00,
2013-09-19 04:11:00,73.0,68.0,29.84,SSE,158,0.0,-999.0,83,-99.99,,,-99.99,,2013-09-19 09:11:00,
2013-09-19 04:21:00,73.0,68.0,29.85,SSE,156,0.0,-999.0,84,-99.99,,,-99.99,,2013-09-19 09:21:00,
2013-09-19 04:53:00,73.0,68.0,29.84,SSE,156,0.0,-999.0,84,-99.99,,,-99.99,,2013-09-19 09:53:00,
2013-09-19 05:12:00,73.0,68.0,29.84,SSE,156,0.0,-999.0,85,-99.99,,,-99.99,,2013-09-19 10:12:00,
2013-09-19 05:23:00,73.0,68.0,29.83,SSE,156,0.0,-999.0,85,-99.99,,,-99.99,,2013-09-19 10:23:00,
2013-09-19 05:43:00,73.0,69.0,29.83,SSE,157,0.0,-999.0,86,-99.99,,,-99.99,,2013-09-19 10:43:00,
2013-09-19 05:52:00,72.0,68.0,29.83,SSE,157,0.0,-999.0,88,-99.99,,,-99.99,,2013-09-19 10:52:00,
2013-09-19 06:12:00,71.0,68.0,29.83,SSE,157,0.0,-999.0,89,-99.99,,,-99.99,,2013-09-19 11:12:00,
2013-09-19 06:22:00,71.0,68.0,29.83,SSE,157,0.0,-999.0,89,-99.99,,,-99.99,,2013-09-19 11:22:00,
2013-09-19 06:42:00,71.0,68.0,29.83,SSE,157,0.0,-999.0,90,-99.99,,,-99.99,,2013-09-19 11:42:00,
2013-09-19 06:52:00,71.0,68.0,29.83,SSE,157,0.0,-999.0,90,-99.99,,,-99.99,,2013-09-19 11:52:00,
2013-09-19 07:11:00,71.0,68.0,29.83,SSE,157,0.0,-999.0,90,-99.99,,,-99.99,,2013-09-19 12:11:00,
2013-09-19 07:21:00,71.0,68.0,29.84,SSE,157,0.0,-999.0,90,-99.99,,,-99.99,,2013-09-19 12:21:00,
2013-09-19 07:52:00,70.0,67.0,29.84,SSE,157,0.0,-999.0,91,-99.99,,,-99.99,,2013-09-19 12:52:00,
2013-09-19 08:11:00,71.0,68.0,29.84,SSE,157,0.0,-999.0,91,-99.99,,,-99.99,,2013-09-19 13:11:00,
2013-09-19 08:21:00,71.0,68.0,29.84,SSE,157,0.0,-999.0,90,-99.99,,,-99.99,,2013-09-19 13:21:00,
2013-09-19 08:42:00,71.0,68.0,29.83,SSE,157,0.0,-999.0,90,-99.99,,,-99.99,,2013-09-19 13:42:00,
2013-09-19 08:52:00,72.0,68.0,29.83,SSE,161,0.0,-999.0,88,-99.99,,,-99.99,,2013-09-19 13:52:00,
2013-09-19 09:22:00,74.0,70.0,29.83,SSE,161,0.0,-999.0,86,-99.99,,,-99.99,,2013-09-19 14:22:00,
2013-09-19 09:52:00,76.0,70.0,29.83,SSE,150,0.0,-999.0,81,-99.99,,,-99.99,,2013-09-19 14:52:00,
2013-09-19 10:22:00,78.0,70.0,29.83,SSE,159,0.0,-999.0,76,-99.99,,,-99.99,,2013-09-19 15:22:00,
2013-09-19 10:43:00,79.0,70.0,29.83,SSE,150,0.0,-999.0,75,-99.99,,,-99.99,,2013-09-19 15:43:00,
2013-09-19 10:53:00,80.0,70.0,29.83,SSE,161,0.0,-999.0,72,-99.99,,,-99.99,,2013-09-19 15:53:00,
2013-09-19 11:04:00,80.0,70.0,29.83,SSE,161,0.0,-999.0,72,-99.99,,,-99.99,,2013-09-19 16:04:00,
2013-09-19 11:24:00,82.0,71.0,29.82,SSE,150,0.0,-999.0,70,-99.99,,,-99.99,,2013-09-19 16:24:00,
2013-09-19 11:43:00,83.0,71.0,29.83,SSE,166,0.0,-999.0,67,-99.99,,,-99.99,,2013-09-19 16:43:00,
2013-09-19 11:52:00,84.0,71.0,29.82,NNE,24,0.0,-999.0,65,-99.99,,,-99.99,,2013-09-19 16:52:00,
2013-09-19 12:12:00,84.0,70.0,29.81,NNW,342,0.0,-999.0,62,-99.99,,,-99.99,,2013-09-19 17:12:00,
2013-09-19 12:23:00,85.0,70.0,29.81,South,170,0.0,-999.0,60,-99.99,,,-99.99,,2013-09-19 17:23:00,
2013-09-19 12:53:00,87.0,70.0,29.81,SSE,163,0.0,-999.0,57,-99.99,,,-99.99,,2013-09-19 17:53:00,
2013-09-19 13:11:00,87.0,69.0,29.80,SSE,162,1.0,-999.0,55,-99.99,,,-99.99,,2013-09-19 18:11:00,
2013-09-19 13:22:00,88.0,70.0,29.80,SSE,161,1.0,-999.0,55,-99.99,,,-99.99,,2013-09-19 18:22:00,
2013-09-19 13:42:00,88.0,69.0,29.80,SSW,196,0.0,-999.0,54,-99.99,,,-99.99,,2013-09-19 18:42:00,
2013-09-19 13:52:00,89.0,70.0,29.79,West,266,0.0,-999.0,53,-99.99,,,-99.99,,2013-09-19 18:52:00,
2013-09-19 14:12:00,89.0,68.0,29.79,South,182,0.0,-999.0,51,-99.99,,,-99.99,,2013-09-19 19:12:00,
2013-09-19 14:22:00,89.0,69.0,29.78,WNW,284,0.0,-999.0,52,-99.99,,,-99.99,,2013-09-19 19:22:00,
2013-09-19 14:52:00,89.0,68.0,29.76,West,266,1.0,-999.0,50,-99.99,,,-99.99,,2013-09-19 19:52:00,
2013-09-19 15:12:00,90.0,68.0,29.76,SSE,166,1.0,-999.0,49,-99.99,,,-99.99,,2013-09-19 20:12:00,
2013-09-19 15:22:00,91.0,69.0,29.75,South,179,1.0,-999.0,48,-99.99,,,-99.99,,2013-09-19 20:22:00,
2013-09-19 15:42:00,90.0,67.0,29.74,ESE,111,1.0,-999.0,47,-99.99,,,-99.99,,2013-09-19 20:42:00,
2013-09-19 15:52:00,90.0,67.0,29.73,South,175,0.0,-999.0,47,-99.99,,,-99.99,,2013-09-19 20:52:00,
2013-09-19 16:12:00,90.0,68.0,29.72,SSE,162,0.0,-999.0,48,-99.99,,,-99.99,,2013-09-19 21:12:00,
2013-09-19 16:22:00,90.0,67.0,29.71,SSW,192,0.0,-999.0,47,-99.99,,,-99.99,,2013-09-19 21:22:00,
2013-09-19 16:44:00,90.0,66.0,29.71,SSE,160,1.0,-999.0,45,-99.99,,,-99.99,,2013-09-19 21:44:00,
2013-09-19 16:55:00,89.0,67.0,29.70,SSW,202,0.0,-999.0,48,-99.99,,,-99.99,,2013-09-19 21:55:00,
2013-09-19 17:14:00,89.0,67.0,29.70,SSE,154,0.0,-999.0,48,-99.99,,,-99.99,,2013-09-19 22:14:00,
2013-09-19 17:24:00,89.0,67.0,29.68,SSE,154,0.0,-999.0,49,-99.99,,,-99.99,,2013-09-19 22:24:00,
2013-09-19 17:53:00,88.0,68.0,29.68,SSE,157,0.0,-999.0,51,-99.99,,,-99.99,,2013-09-19 22:53:00,
2013-09-19 18:12:00,88.0,67.0,29.69,SSE,154,0.0,-999.0,50,-99.99,,,-99.99,,2013-09-19 23:12:00,
2013-09-19 18:22:00,87.0,65.0,29.70,SSE,151,1.0,-999.0,49,-99.99,,,-99.99,,2013-09-19 23:22:00,
2013-09-19 18:53:00,86.0,65.0,29.72,SSE,167,0.0,-999.0,50,-99.99,,,-99.99,,2013-09-19 23:53:00,
2013-09-19 19:12:00,86.0,66.0,29.72,SSE,155,1.0,-999.0,51,-99.99,,,-99.99,,2013-09-20 00:12:00,
2013-09-19 19:22:00,85.0,66.0,29.72,South,175,0.0,-999.0,53,-99.99,,,-99.99,,2013-09-20 00:22:00,
2013-09-19 19:42:00,85.0,66.0,29.72,SSE,163,0.0,-999.0,54,-99.99,,,-99.99,,2013-09-20 00:42:00,
2013-09-19 19:52:00,82.0,64.0,29.80,WSW,255,3.0,-999.0,55,-99.99,,,-99.99,,2013-09-20 00:52:00,
2013-09-19 20:52:00,67.0,65.0,29.80,NW,309,0.0,-999.0,94,-99.99,,,-99.99,,2013-09-20 01:52:00,
2013-09-19 21:12:00,67.0,66.0,29.78,NW,309,0.0,-999.0,95,-99.99,,,-99.99,,2013-09-20 02:12:00,
2013-09-19 21:22:00,67.0,66.0,29.79,NW,309,0.0,-999.0,95,-99.99,,,-99.99,,2013-09-20 02:22:00,
2013-09-19 21:52:00,67.0,66.0,29.78,NW,309,0.0,-999.0,95,-99.99,,,-99.99,,2013-09-20 02:52:00,
2013-09-19 22:12:00,67.0,66.0,29.79,NW,309,0.0,-999.0,96,-99.99,,,-99.99,,2013-09-20 03:12:00,
2013-09-19 22:23:00,67.0,66.0,29.77,NW,309,0.0,-999.0,96,-99.99,,,-99.99,,2013-09-20 03:23:00,
2013-09-19 22:45:00,67.0,66.0,29.77,NW,309,0.0,-999.0,96,-99.99,,,-99.99,,2013-09-20 03:45:00,
2013-09-19 22:55:00,67.0,66.0,29.82,SE,140,0.0,-999.0,96,-99.99,,,-99.99,,2013-09-20 03:55:00,
2013-09-19 23:14:00,67.0,66.0,29.83,SE,140,0.0,-999.0,96,-99.99,,,-99.99,,2013-09-20 04:14:00,
2013-09-19 23:24:00,67.0,66.0,29.82,SE,140,0.0,-999.0,96,-99.99,,,-99.99,,2013-09-20 04:24:00,
2013-09-19 23:44:00,66.0,65.0,29.80,SE,140,0.0,-999.0,96,-99.99,,,-99.99,,2013-09-20 04:44:00,
2013-09-19 23:53:00,66.0,65.0,29.78,SE,140,0.0,-999.0,97,-99.99,,,-99.99,,2013-09-20 04:53:00,